Time;durP1;ratioP1;P1;durP2;ratioP2;P2;SDS_P1;SDS_P2;PMS_P1;PMS_P2;Temp;Humidity;BMP_temperature;BMP_pressure;BME280_temperature;BME280_humidity;BME280_pressure;Samples;Min_cycle;Max_cycle;Signal;HPM_P1;HPM_P2
2022/07/27 00:00:28;;;;;;;4.77;1.10;;;;;;;-150.27;100.00;61272.81;5240312;28;20499;-75
2022/07/27 00:02:59;;;;;;;3.80;0.93;;;;;;;-150.27;100.00;61272.81;5227336;28;20033;-75
2022/07/27 00:05:30;;;;;;;3.73;1.10;;;;;;;-150.27;100.00;61272.81;5221291;28;20021;-75
2022/07/27 00:08:01;;;;;;;4.20;1.10;;;;;;;-150.27;100.00;61272.81;5236849;28;20036;-75
2022/07/27 00:10:34;;;;;;;6.73;1.90;;;;;;;-150.27;100.00;61272.81;5230190;28;20120;-75
2022/07/27 00:13:06;;;;;;;3.57;1.00;;;;;;;-150.27;100.00;61272.81;5236543;28;20089;-75
2022/07/27 00:15:37;;;;;;;4.97;1.40;;;;;;;-150.27;100.00;61272.81;5230540;28;20527;-74
2022/07/27 00:18:09;;;;;;;9.30;1.40;;;;;;;-150.27;100.00;61272.81;5240149;28;20119;-75
2022/07/27 00:20:40;;;;;;;3.67;0.90;;;;;;;-150.27;100.00;61272.81;5232711;28;20045;-74
2022/07/27 00:23:12;;;;;;;4.77;1.20;;;;;;;-150.27;100.00;61272.81;5232539;28;20029;-74
2022/07/27 00:25:43;;;;;;;6.77;1.73;;;;;;;-150.27;100.00;61272.81;5240015;28;20633;-75
2022/07/27 00:28:14;;;;;;;5.93;1.27;;;;;;;-150.27;100.00;61272.81;5236727;28;20067;-77
2022/07/27 00:30:46;;;;;;;3.60;1.27;;;;;;;-150.27;100.00;61272.81;5235768;28;20703;-75
2022/07/27 00:33:17;;;;;;;4.80;1.50;;;;;;;-150.27;100.00;61272.81;5221398;28;20029;-75
2022/07/27 00:35:48;;;;;;;7.77;1.80;;;;;;;-150.27;100.00;61272.81;5236977;28;20037;-75
2022/07/27 00:38:20;;;;;;;5.80;1.63;;;;;;;-150.27;100.00;61272.81;5218822;28;20037;-76
2022/07/27 00:40:52;;;;;;;10.33;1.70;;;;;;;-150.27;100.00;61272.81;5221799;28;20033;-76
2022/07/27 00:43:23;;;;;;;6.47;1.70;;;;;;;-150.27;100.00;61272.81;5220685;28;20802;-75
2022/07/27 00:45:55;;;;;;;4.87;2.00;;;;;;;-150.27;100.00;61272.81;5222202;28;20066;-75
2022/07/27 00:48:27;;;;;;;7.40;2.10;;;;;;;-150.27;100.00;61272.81;5239380;28;20155;-75
2022/07/27 00:50:59;;;;;;;7.03;2.03;;;;;;;-150.27;100.00;61272.81;5240097;28;20029;-76
2022/07/27 00:53:31;;;;;;;6.73;1.83;;;;;;;-150.27;100.00;61272.81;5238019;28;20043;-75
2022/07/27 00:56:02;;;;;;;4.60;1.73;;;;;;;-150.27;100.00;61272.81;5233698;28;20789;-75
2022/07/27 00:58:36;;;;;;;11.17;2.00;;;;;;;-150.27;100.00;61272.81;5239040;28;20059;-74
2022/07/27 01:01:07;;;;;;;9.02;2.35;;;;;;;-150.27;100.00;61272.81;5238190;28;20029;-74
2022/07/27 01:03:39;;;;;;;5.30;2.10;;;;;;;-150.27;100.00;61272.81;5240371;28;20495;-75
2022/07/27 01:06:11;;;;;;;6.50;2.10;;;;;;;-150.27;100.00;61272.81;5238666;28;20088;-75
2022/07/27 01:08:42;;;;;;;5.70;2.00;;;;;;;-150.27;100.00;61272.81;5238917;28;20033;-75
2022/07/27 01:11:14;;;;;;;6.37;1.93;;;;;;;-150.27;100.00;61272.81;5238984;28;20036;-75
2022/07/27 01:13:45;;;;;;;8.07;2.80;;;;;;;-150.27;100.00;61272.81;5238407;28;20803;-75
2022/07/27 01:16:18;;;;;;;6.43;3.00;;;;;;;-150.27;100.00;61272.81;5221634;28;20661;-74
2022/07/27 01:18:49;;;;;;;6.53;2.57;;;;;;;-150.27;100.00;61272.81;5239437;28;20064;-75
2022/07/27 01:21:21;;;;;;;8.20;2.53;;;;;;;-150.27;100.00;61272.81;5237177;28;20514;-75
2022/07/27 01:23:52;;;;;;;7.63;2.27;;;;;;;-150.27;100.00;61272.81;5227374;28;20116;-76
2022/07/27 01:26:24;;;;;;;6.30;1.97;;;;;;;-150.27;100.00;61272.81;5219664;28;20337;-76
2022/07/27 01:28:59;;;;;;;6.67;2.67;;;;;;;-150.27;100.00;61272.81;5239169;28;20048;-76
2022/07/27 01:31:31;;;;;;;5.73;1.97;;;;;;;-150.27;100.00;61272.81;5219414;28;21015;-76
2022/07/27 01:34:03;;;;;;;5.23;1.93;;;;;;;-150.27;100.00;61272.81;5239825;28;20040;-75
2022/07/27 01:36:35;;;;;;;7.20;2.20;;;;;;;-150.27;100.00;61272.81;5220153;28;20790;-75
2022/07/27 01:39:06;;;;;;;4.43;2.43;;;;;;;-150.27;100.00;61272.81;5241053;28;20037;-75
2022/07/27 01:41:37;;;;;;;10.00;2.73;;;;;;;-150.27;100.00;61272.81;5254173;28;20434;-75
2022/07/27 01:44:09;;;;;;;5.57;2.20;;;;;;;-150.27;100.00;61272.81;5258932;28;20025;-75
2022/07/27 01:46:40;;;;;;;5.30;1.80;;;;;;;-150.27;100.00;61272.81;5248684;28;20115;-74
2022/07/27 01:49:12;;;;;;;6.53;2.30;;;;;;;-150.27;100.00;61272.81;5231718;28;20178;-76
2022/07/27 01:51:43;;;;;;;7.70;2.47;;;;;;;-150.27;100.00;61272.81;5249500;28;20025;-75
2022/07/27 01:54:14;;;;;;;6.83;2.20;;;;;;;-150.27;100.00;61272.81;5249750;28;20021;-75
2022/07/27 01:56:45;;;;;;;7.23;2.87;;;;;;;-150.27;100.00;61272.81;5249363;28;20037;-76
2022/07/27 01:59:17;;;;;;;8.97;2.13;;;;;;;-150.27;100.00;61272.81;5241522;28;20037;-74
2022/07/27 02:01:48;;;;;;;5.53;2.20;;;;;;;-150.27;100.00;61272.81;5248605;28;20115;-74
2022/07/27 02:04:19;;;;;;;5.07;1.70;;;;;;;-150.27;100.00;61272.81;5263813;28;20047;-74
2022/07/27 02:06:51;;;;;;;9.03;2.10;;;;;;;-150.27;100.00;61272.81;5247499;28;20056;-74
2022/07/27 02:09:24;;;;;;;5.97;1.97;;;;;;;-150.27;100.00;61272.81;5248923;28;20033;-74
2022/07/27 02:14:45;;;;;;;9.10;2.20;;;;;;;-150.27;100.00;61272.81;5248968;28;20123;-75
2022/07/27 02:17:17;;;;;;;6.07;2.00;;;;;;;-150.27;100.00;61272.81;5249180;28;20115;-74
2022/07/27 02:19:48;;;;;;;7.73;2.37;;;;;;;-150.27;100.00;61272.81;5249481;28;20037;-74
2022/07/27 02:22:19;;;;;;;4.37;1.93;;;;;;;-150.27;100.00;61272.81;5249089;28;20033;-74
2022/07/27 02:24:51;;;;;;;7.27;2.37;;;;;;;-150.27;100.00;61272.81;5248940;28;20039;-74
2022/07/27 02:27:22;;;;;;;5.97;2.37;;;;;;;-150.27;100.00;61272.81;5246117;28;20468;-76
2022/07/27 02:29:54;;;;;;;6.90;2.53;;;;;;;-150.27;100.00;61272.81;5248983;28;20052;-76
2022/07/27 02:32:25;;;;;;;8.47;2.17;;;;;;;-150.27;100.00;61272.81;5248040;28;20043;-76
2022/07/27 02:34:56;;;;;;;6.13;2.10;;;;;;;-150.27;100.00;61272.81;5249116;28;20029;-75
2022/07/27 02:37:28;;;;;;;9.77;2.27;;;;;;;-150.27;100.00;61272.81;5222906;28;20056;-75
2022/07/27 02:39:59;;;;;;;10.53;2.10;;;;;;;-150.27;100.00;61272.81;5244345;28;20029;-74
2022/07/27 02:42:30;;;;;;;5.67;2.53;;;;;;;-150.27;100.00;61272.81;5247961;28;20029;-74
2022/07/27 02:45:02;;;;;;;3.97;1.90;;;;;;;-150.27;100.00;61272.81;5247090;28;20057;-74
2022/07/27 02:47:34;;;;;;;5.67;2.87;;;;;;;-150.27;100.00;61272.81;5247413;28;20025;-75
2022/07/27 02:50:07;;;;;;;6.17;2.30;;;;;;;-150.27;100.00;61272.81;5248909;28;20029;-74
2022/07/27 02:52:38;;;;;;;8.70;2.67;;;;;;;-150.27;100.00;61272.81;5234489;28;20017;-75
2022/07/27 02:55:10;;;;;;;5.70;3.00;;;;;;;-150.27;100.00;61272.81;5249354;28;20717;-73
2022/07/27 02:57:41;;;;;;;4.87;2.07;;;;;;;-150.27;100.00;61272.81;5248855;28;20033;-74
2022/07/27 03:00:14;;;;;;;6.80;2.67;;;;;;;-150.27;100.00;61272.81;5248392;28;20039;-76
2022/07/27 03:02:48;;;;;;;6.87;2.33;;;;;;;-150.27;100.00;61272.81;5247791;28;20036;-74
2022/07/27 03:05:19;;;;;;;10.33;2.57;;;;;;;-150.27;100.00;61272.81;5248286;28;20061;-75
2022/07/27 03:07:51;;;;;;;9.10;2.60;;;;;;;-150.27;100.00;61272.81;5245938;28;20148;-74
2022/07/27 03:10:22;;;;;;;5.13;2.30;;;;;;;-150.27;100.00;61272.81;5247010;28;20033;-74
2022/07/27 03:12:53;;;;;;;7.63;2.80;;;;;;;-150.27;100.00;61272.81;5248389;28;20079;-75
2022/07/27 03:15:25;;;;;;;5.27;2.60;;;;;;;-150.27;100.00;61272.81;5248962;28;20036;-74
2022/07/27 03:17:56;;;;;;;6.43;2.93;;;;;;;-150.27;100.00;61272.81;5248516;28;20052;-74
2022/07/27 03:20:27;;;;;;;7.87;2.83;;;;;;;-150.27;100.00;61272.81;5233631;28;20028;-74
2022/07/27 03:22:58;;;;;;;10.73;2.50;;;;;;;-150.27;100.00;61272.81;5251413;28;20032;-74
2022/07/27 03:25:30;;;;;;;5.17;2.90;;;;;;;-150.27;100.00;61272.81;5263027;28;20020;-75
2022/07/27 03:28:01;;;;;;;7.87;3.13;;;;;;;-150.27;100.00;61272.81;5249212;28;20041;-75
2022/07/27 03:30:33;;;;;;;5.93;2.30;;;;;;;-150.27;100.00;61272.81;5247790;28;20037;-74
2022/07/27 03:33:04;;;;;;;6.47;3.17;;;;;;;-150.27;100.00;61272.81;5248488;28;20040;-74
2022/07/27 03:35:35;;;;;;;8.40;2.40;;;;;;;-150.27;100.00;61272.81;5248296;28;20106;-74
2022/07/27 03:38:06;;;;;;;6.60;2.70;;;;;;;-150.27;100.00;61272.81;5229001;28;20028;-75
2022/07/27 03:40:39;;;;;;;4.60;2.20;;;;;;;-150.27;100.00;61272.81;5243588;28;20064;-75
2022/07/27 03:43:10;;;;;;;6.40;2.40;;;;;;;-150.27;100.00;61272.81;5246769;28;20033;-75
2022/07/27 03:45:41;;;;;;;8.07;2.50;;;;;;;-150.27;100.00;61272.81;5248303;28;20115;-75
2022/07/27 03:48:13;;;;;;;7.97;2.70;;;;;;;-150.27;100.00;61272.81;5249005;28;20146;-76
2022/07/27 03:50:44;;;;;;;4.40;2.53;;;;;;;-150.27;100.00;61272.81;5251330;28;20025;-75
2022/07/27 03:53:16;;;;;;;6.23;2.70;;;;;;;-150.27;100.00;61272.81;5246614;28;20061;-76
2022/07/27 03:55:48;;;;;;;6.67;2.57;;;;;;;-150.27;100.00;61272.81;5248742;28;20039;-76
2022/07/27 03:58:22;;;;;;;9.20;2.90;;;;;;;-150.27;100.00;61272.81;5248282;28;20033;-74
2022/07/27 04:00:53;;;;;;;8.15;2.97;;;;;;;-150.27;100.00;61272.81;5246875;28;20431;-75
2022/07/27 04:03:24;;;;;;;5.10;2.53;;;;;;;-150.27;100.00;61272.81;5248874;28;20025;-74
2022/07/27 04:05:56;;;;;;;6.97;2.53;;;;;;;-150.27;100.00;61272.81;5246839;28;20087;-75
2022/07/27 04:08:27;;;;;;;8.03;3.07;;;;;;;-150.27;100.00;61272.81;5235548;28;20473;-75
2022/07/27 04:10:58;;;;;;;9.10;2.53;;;;;;;-150.27;100.00;61272.81;5249072;28;20176;-75
2022/07/27 04:13:29;;;;;;;5.63;2.37;;;;;;;-150.27;100.00;61272.81;5248184;28;20044;-74
2022/07/27 04:16:01;;;;;;;13.00;3.63;;;;;;;-150.27;100.00;61272.81;5247965;28;20052;-74
2022/07/27 04:18:32;;;;;;;11.63;3.17;;;;;;;-150.27;100.00;61272.81;5248807;28;20135;-75
2022/07/27 04:21:05;;;;;;;4.77;2.60;;;;;;;-150.27;100.00;61272.81;5247016;28;20383;-75
2022/07/27 04:23:36;;;;;;;8.23;2.90;;;;;;;-150.27;100.00;61272.81;5247723;28;20029;-75
2022/07/27 04:26:07;;;;;;;7.37;2.60;;;;;;;-150.27;100.00;61272.81;5247926;28;20083;-75
2022/07/27 04:28:39;;;;;;;5.60;3.00;;;;;;;-150.27;100.00;61272.81;5249047;28;20065;-75
2022/07/27 04:31:10;;;;;;;5.40;2.57;;;;;;;-150.27;100.00;61272.81;5250464;28;20028;-75
2022/07/27 04:33:41;;;;;;;7.60;2.13;;;;;;;-150.27;100.00;61272.81;5251454;28;20020;-75
2022/07/27 04:36:13;;;;;;;7.37;3.23;;;;;;;-150.27;100.00;61272.81;5249476;28;20329;-75
2022/07/27 04:38:44;;;;;;;4.03;2.27;;;;;;;-150.27;100.00;61272.81;5231901;28;20048;-76
2022/07/27 04:41:16;;;;;;;7.80;2.90;;;;;;;-150.27;100.00;61272.81;5248417;28;20024;-75
2022/07/27 04:43:47;;;;;;;7.73;2.67;;;;;;;-150.27;100.00;61272.81;5250825;28;20051;-75
2022/07/27 04:46:18;;;;;;;9.67;2.97;;;;;;;-150.27;100.00;61272.81;5251570;28;20052;-75
2022/07/27 04:48:50;;;;;;;10.77;3.40;;;;;;;-150.27;100.00;61272.81;5250816;28;20021;-75
2022/07/27 04:51:22;;;;;;;5.63;2.90;;;;;;;-150.27;100.00;61272.81;5252279;28;20029;-76
2022/07/27 04:53:53;;;;;;;7.90;2.90;;;;;;;-150.27;100.00;61272.81;5272646;28;20016;-75
2022/07/27 04:56:25;;;;;;;7.33;2.63;;;;;;;-150.27;100.00;61272.81;5253943;28;20032;-75
2022/07/27 04:58:56;;;;;;;6.57;2.93;;;;;;;-150.27;100.00;61272.81;5266564;28;20563;-76
2022/07/27 05:01:28;;;;;;;5.97;2.67;;;;;;;-150.27;100.00;61272.81;5250468;28;20119;-75
2022/07/27 05:03:59;;;;;;;7.57;3.10;;;;;;;-150.27;100.00;61272.81;5251610;28;20025;-75
2022/07/27 05:06:31;;;;;;;6.10;2.50;;;;;;;-150.27;100.00;61272.81;5248796;28;20037;-75
2022/07/27 05:09:03;;;;;;;10.03;3.40;;;;;;;-150.27;100.00;61272.81;5251801;28;20040;-75
2022/07/27 05:11:34;;;;;;;8.53;3.50;;;;;;;-150.27;100.00;61272.81;5251823;28;20022;-75
2022/07/27 05:14:05;;;;;;;7.93;3.80;;;;;;;-150.27;100.00;61272.81;5242100;28;20059;-75
2022/07/27 05:16:39;;;;;;;5.90;2.93;;;;;;;-150.27;100.00;61272.81;5251001;28;20029;-75
2022/07/27 05:19:11;;;;;;;16.10;3.90;;;;;;;-150.27;100.00;61272.81;5250542;28;20029;-75
2022/07/27 05:21:42;;;;;;;10.43;3.20;;;;;;;-150.27;100.00;61272.81;5249641;28;20070;-75
2022/07/27 05:24:14;;;;;;;11.87;3.80;;;;;;;-150.27;100.00;61272.81;5251353;28;20043;-75
2022/07/27 05:26:45;;;;;;;10.67;3.13;;;;;;;-150.27;100.00;61272.81;5251832;28;20028;-75
2022/07/27 05:29:16;;;;;;;12.13;3.70;;;;;;;-150.27;100.00;61272.81;5250981;28;20383;-75
2022/07/27 05:31:47;;;;;;;12.93;3.50;;;;;;;-150.27;100.00;61272.81;5252246;28;20064;-75
2022/07/27 05:34:19;;;;;;;9.20;4.30;;;;;;;-150.27;100.00;61272.81;5248453;28;20043;-75
2022/07/27 05:36:50;;;;;;;8.57;3.47;;;;;;;-150.27;100.00;61272.81;5243153;28;20436;-75
2022/07/27 05:39:21;;;;;;;7.07;3.57;;;;;;;-150.27;100.00;61272.81;5239612;28;20131;-75
2022/07/27 05:41:52;;;;;;;14.70;3.73;;;;;;;-150.27;100.00;61272.81;5238467;28;20032;-75
2022/07/27 05:44:24;;;;;;;13.70;4.30;;;;;;;-150.27;100.00;61272.81;5238982;28;20048;-76
2022/07/27 05:46:55;;;;;;;8.03;3.43;;;;;;;-150.27;100.00;61272.81;5237856;28;20136;-75
2022/07/27 05:49:27;;;;;;;10.13;3.53;;;;;;;-150.27;100.00;61272.81;5221222;28;20572;-76
2022/07/27 05:51:59;;;;;;;9.03;3.43;;;;;;;-150.27;100.00;61272.81;5224294;28;20045;-76
2022/07/27 05:54:30;;;;;;;9.60;4.07;;;;;;;-150.27;100.00;61272.81;5238700;28;20040;-75
2022/07/27 05:57:02;;;;;;;12.93;3.87;;;;;;;-150.27;100.00;61272.81;5239019;28;20099;-76
2022/07/27 05:59:34;;;;;;;13.33;4.00;;;;;;;-150.27;100.00;61272.81;5239259;28;20053;-75
2022/07/27 06:02:06;;;;;;;10.13;3.40;;;;;;;-150.27;100.00;61272.81;5229162;28;20037;-75
2022/07/27 06:04:37;;;;;;;7.67;3.03;;;;;;;-150.27;100.00;61272.81;5240478;28;20029;-75
2022/07/27 06:09:59;;;;;;;6.97;2.93;;;;;;;-150.27;100.00;61272.81;5224069;28;20046;-75
2022/07/27 06:12:39;;;;;;;9.77;2.97;;;;;;;-150.27;100.00;61272.81;5212764;28;20025;-75
2022/07/27 06:15:12;;;;;;;9.07;2.63;;;;;;;-150.27;100.00;61272.81;5220649;28;20033;-75
2022/07/27 06:17:45;;;;;;;9.83;2.70;;;;;;;-150.27;100.00;61272.81;5225742;28;20515;-75
2022/07/27 06:20:17;;;;;;;6.83;2.37;;;;;;;-150.27;100.00;61272.81;5223293;28;20025;-76
2022/07/27 06:22:50;;;;;;;8.50;3.20;;;;;;;-150.27;100.00;61272.81;5227304;28;20037;-75
2022/07/27 06:25:23;;;;;;;5.77;2.30;;;;;;;-150.27;100.00;61272.81;5223683;28;20022;-76
2022/07/27 06:27:55;;;;;;;5.72;2.45;;;;;;;-150.27;100.00;61272.81;5223107;28;20033;-75
2022/07/27 06:30:26;;;;;;;8.63;2.57;;;;;;;-150.27;100.00;61272.81;5225057;28;20020;-74
2022/07/27 06:32:57;;;;;;;5.40;1.43;;;;;;;-150.27;100.00;61272.81;5224012;28;20048;-74
2022/07/27 06:35:29;;;;;;;8.30;1.83;;;;;;;-150.27;100.00;61272.81;5223931;28;20134;-75
2022/07/27 06:38:01;;;;;;;6.40;1.53;;;;;;;-150.27;100.00;61272.81;5220473;28;20095;-75
2022/07/27 06:40:33;;;;;;;6.87;1.90;;;;;;;-150.27;100.00;61272.81;5221497;28;20507;-75
2022/07/27 06:43:04;;;;;;;5.40;1.53;;;;;;;-150.27;100.00;61272.81;5228302;28;20029;-75
2022/07/27 06:45:36;;;;;;;3.40;1.80;;;;;;;-150.27;100.00;61272.81;5238380;28;20025;-75
2022/07/27 06:48:07;;;;;;;5.57;1.07;;;;;;;-150.27;100.00;61272.81;5235992;28;20041;-75
2022/07/27 06:50:38;;;;;;;8.80;2.30;;;;;;;-150.27;100.00;61272.81;5237591;28;20025;-75
2022/07/27 06:53:10;;;;;;;8.67;2.57;;;;;;;-150.27;100.00;61272.81;5236580;28;20025;-75
2022/07/27 06:55:41;;;;;;;5.00;1.70;;;;;;;-150.27;100.00;61272.81;5204173;28;20621;-75
2022/07/27 06:58:13;;;;;;;4.67;1.83;;;;;;;-150.27;100.00;61272.81;5219782;28;20769;-75
2022/07/27 07:00:44;;;;;;;4.00;1.50;;;;;;;-150.27;100.00;61272.81;5236674;28;20120;-76
2022/07/27 07:03:15;;;;;;;6.70;1.40;;;;;;;-150.27;100.00;61272.81;5228523;28;20117;-76
2022/07/27 07:05:47;;;;;;;4.80;1.70;;;;;;;-150.27;100.00;61272.81;5219163;28;20173;-77
2022/07/27 07:08:18;;;;;;;2.27;1.00;;;;;;;-150.27;100.00;61272.81;5224798;28;20480;-77
2022/07/27 07:10:50;;;;;;;3.93;1.10;;;;;;;-150.27;100.00;61272.81;5202388;28;20029;-77
2022/07/27 07:13:22;;;;;;;6.93;1.00;;;;;;;-150.27;100.00;61272.81;5224795;28;20087;-77
2022/07/27 07:15:53;;;;;;;6.00;1.03;;;;;;;-150.27;100.00;61272.81;5220211;28;20519;-77
2022/07/27 07:18:24;;;;;;;3.37;1.10;;;;;;;-150.27;100.00;61272.81;5220446;28;20087;-79
2022/07/27 07:20:56;;;;;;;6.53;1.40;;;;;;;-150.27;100.00;61272.81;5220801;28;20036;-73
2022/07/27 07:23:27;;;;;;;6.20;1.87;;;;;;;-150.27;100.00;61272.81;5220330;28;20119;-74
2022/07/27 07:25:59;;;;;;;4.73;1.13;;;;;;;-150.27;100.00;61272.81;5223243;28;20107;-76
2022/07/27 07:28:30;;;;;;;6.40;1.37;;;;;;;-150.27;100.00;61272.81;5223371;28;20083;-77
2022/07/27 07:31:01;;;;;;;8.17;1.60;;;;;;;-150.27;100.00;61272.81;5221531;28;20032;-77
2022/07/27 07:33:33;;;;;;;4.80;1.30;;;;;;;-150.27;100.00;61272.81;5223395;28;20041;-75
2022/07/27 07:36:04;;;;;;;3.87;1.60;;;;;;;-150.27;100.00;61272.81;5225708;28;20040;-74
2022/07/27 07:38:35;;;;;;;7.40;1.40;;;;;;;-150.27;100.00;61272.81;5222040;28;20037;-75
2022/07/27 07:41:07;;;;;;;7.87;1.10;;;;;;;-150.27;100.00;61272.81;5243384;28;20108;-78
2022/07/27 07:43:40;;;;;;;10.03;2.17;;;;;;;-150.27;100.00;61272.81;5265333;28;20032;-74
2022/07/27 07:46:12;;;;;;;5.85;1.25;;;;;;;-150.27;100.00;61272.81;5251601;28;20013;-76
2022/07/27 07:48:43;;;;;;;4.70;1.10;;;;;;;-150.27;100.00;61272.81;5248350;28;20040;-75
2022/07/27 07:51:14;;;;;;;4.43;0.93;;;;;;;-150.27;100.00;61272.81;5247539;28;20041;-76
2022/07/27 07:53:45;;;;;;;4.60;1.20;;;;;;;-150.27;100.00;61272.81;5246348;28;20044;-74
2022/07/27 07:56:17;;;;;;;3.45;0.98;;;;;;;-150.27;100.00;61272.81;5246225;28;20086;-74
2022/07/27 07:58:48;;;;;;;7.03;1.23;;;;;;;-150.27;100.00;61272.81;5259337;28;20040;-74
2022/07/27 08:01:19;;;;;;;5.90;1.08;;;;;;;-150.27;100.00;61272.81;5235600;28;20029;-74
2022/07/27 08:03:51;;;;;;;4.67;1.20;;;;;;;-150.27;100.00;61272.81;5251118;28;20659;-75
2022/07/27 08:06:22;;;;;;;3.30;1.40;;;;;;;-150.27;100.00;61272.81;5249798;28;20172;-74
2022/07/27 08:08:54;;;;;;;5.43;1.00;;;;;;;-150.27;100.00;61272.81;5252145;28;20017;-75
2022/07/27 08:11:25;;;;;;;4.63;1.00;;;;;;;-150.27;100.00;61272.81;5258959;28;20029;-75
2022/07/27 08:13:56;;;;;;;5.40;1.55;;;;;;;-150.27;100.00;61272.81;5252017;28;20344;-74
2022/07/27 08:16:28;;;;;;;3.50;1.42;;;;;;;-150.27;100.00;61272.81;5242350;28;20167;-76
2022/07/27 08:18:59;;;;;;;7.63;1.55;;;;;;;-150.27;100.00;61272.81;5249962;28;20056;-75
2022/07/27 08:21:31;;;;;;;3.65;1.00;;;;;;;-150.27;100.00;61272.81;5250437;28;20122;-75
2022/07/27 08:24:02;;;;;;;5.07;1.25;;;;;;;-150.27;100.00;61272.81;5250253;28;20033;-76
2022/07/27 08:26:33;;;;;;;4.90;1.10;;;;;;;-150.27;100.00;61272.81;5251352;28;20052;-75
2022/07/27 08:29:05;;;;;;;3.40;1.10;;;;;;;-150.27;100.00;61272.81;5250918;28;20025;-74
2022/07/27 08:31:36;;;;;;;4.60;1.20;;;;;;;-150.27;100.00;61272.81;5250524;28;20031;-75
2022/07/27 08:34:07;;;;;;;4.57;1.25;;;;;;;-150.27;100.00;61272.81;5248916;28;20025;-75
2022/07/27 08:36:39;;;;;;;6.95;1.30;;;;;;;-150.27;100.00;61272.81;5254502;28;20024;-74
2022/07/27 08:39:10;;;;;;;4.50;0.93;;;;;;;-150.27;100.00;61272.81;5238395;28;20035;-74
2022/07/27 08:41:42;;;;;;;4.10;1.02;;;;;;;-150.27;100.00;61272.81;5247051;28;20055;-74
2022/07/27 08:44:13;;;;;;;2.42;0.73;;;;;;;-150.27;100.00;61272.81;5249855;28;20495;-75
2022/07/27 08:46:45;;;;;;;9.48;1.48;;;;;;;-150.27;100.00;61272.81;5235013;28;20029;-74
2022/07/27 08:49:17;;;;;;;5.78;1.00;;;;;;;-150.27;100.00;61272.81;5250480;28;20024;-74
2022/07/27 08:51:49;;;;;;;5.72;0.98;;;;;;;-150.27;100.00;61272.81;5233599;28;20025;-75
2022/07/27 08:54:20;;;;;;;2.67;0.70;;;;;;;-150.27;100.00;61272.81;5249199;28;20059;-74
2022/07/27 08:56:52;;;;;;;3.75;0.88;;;;;;;-150.27;100.00;61272.81;5251269;28;20249;-75
2022/07/27 08:59:23;;;;;;;4.93;1.27;;;;;;;-150.27;100.00;61272.81;5250805;28;20463;-74
2022/07/27 09:01:54;;;;;;;3.42;1.10;;;;;;;-150.27;100.00;61272.81;5250692;28;20112;-74
2022/07/27 09:04:26;;;;;;;4.18;0.98;;;;;;;-150.27;100.00;61272.81;5254701;28;20024;-75
2022/07/27 09:06:57;;;;;;;4.50;0.93;;;;;;;-150.27;100.00;61272.81;5250151;28;20123;-74
2022/07/27 09:09:43;;;;;;;4.45;1.17;;;;;;;-150.27;100.00;61272.81;5247578;28;20021;-75
2022/07/27 09:12:15;;;;;;;1.75;0.68;;;;;;;-150.27;100.00;61272.81;5248932;28;20044;-75
2022/07/27 09:14:46;;;;;;;3.08;0.80;;;;;;;-150.27;100.00;61272.81;5250283;28;20021;-75
2022/07/27 09:17:25;;;;;;;3.70;0.90;;;;;;;-150.27;100.00;61272.81;5251452;28;20024;-74
2022/07/27 09:20:00;;;;;;;3.78;0.90;;;;;;;-150.27;100.00;61272.81;5249625;28;20114;-75
2022/07/27 09:22:38;;;;;;;2.33;0.90;;;;;;;-150.27;100.00;61272.81;5251035;28;20025;-75
2022/07/27 09:25:14;;;;;;;3.15;1.25;;;;;;;-150.27;100.00;61272.81;5248131;28;20025;-75
2022/07/27 09:27:48;;;;;;;4.88;1.30;;;;;;;-150.27;100.00;61272.81;5250320;28;20105;-75
2022/07/27 09:30:20;;;;;;;4.07;1.05;;;;;;;-150.27;100.00;61272.81;5248874;28;20440;-75
2022/07/27 09:33:03;;;;;;;4.68;1.13;;;;;;;-150.27;100.00;61272.81;5250046;28;20285;-76
2022/07/27 09:35:35;;;;;;;3.07;1.33;;;;;;;-150.27;100.00;61272.81;5247370;28;20471;-76
2022/07/27 09:38:20;;;;;;;2.85;1.02;;;;;;;-150.27;100.00;61272.81;5249280;28;20025;-75
2022/07/27 09:40:59;;;;;;;8.30;1.40;;;;;;;-150.27;100.00;61272.81;5238805;28;20815;-75
2022/07/27 09:43:43;;;;;;;6.78;1.17;;;;;;;-150.27;100.00;61272.81;5264407;28;20024;-75
2022/07/27 09:46:15;;;;;;;4.70;1.10;;;;;;;-150.27;100.00;61272.81;5244374;28;20060;-75
2022/07/27 09:48:46;;;;;;;5.35;0.98;;;;;;;-150.27;100.00;61272.81;5245690;28;20516;-76
2022/07/27 09:51:18;;;;;;;6.15;1.10;;;;;;;-150.27;100.00;61272.81;5244070;28;20051;-75
2022/07/27 09:53:52;;;;;;;4.63;1.08;;;;;;;-150.27;100.00;61272.81;5258017;28;20025;-75
2022/07/27 09:56:27;;;;;;;4.25;1.23;;;;;;;-150.27;100.00;61272.81;5262724;28;20033;-75
2022/07/27 09:59:00;;;;;;;7.68;1.35;;;;;;;-150.27;100.00;61272.81;5249498;28;20036;-74
2022/07/27 10:01:36;;;;;;;6.93;1.17;;;;;;;-150.27;100.00;61272.81;5249807;28;20032;-75
2022/07/27 10:04:08;;;;;;;6.60;1.60;;;;;;;-150.27;100.00;61272.81;5232253;28;20025;-75
2022/07/27 10:06:39;;;;;;;3.97;1.10;;;;;;;-150.27;100.00;61272.81;5248819;28;20048;-75
2022/07/27 10:09:11;;;;;;;4.55;0.90;;;;;;;-150.27;100.00;61272.81;5249238;28;20055;-75
2022/07/27 10:11:42;;;;;;;5.82;0.95;;;;;;;-150.27;100.00;61272.81;5249156;28;20100;-76
2022/07/27 10:14:15;;;;;;;6.28;1.33;;;;;;;-150.27;100.00;61272.81;5250068;28;20041;-75
2022/07/27 10:16:48;;;;;;;5.65;1.20;;;;;;;-150.27;100.00;61272.81;5249958;28;20025;-74
2022/07/27 10:19:44;;;;;;;7.53;1.30;;;;;;;-150.27;100.00;61272.81;5249374;28;20029;-74
2022/07/27 10:22:35;;;;;;;5.13;1.65;;;;;;;-150.27;100.00;61272.81;5249277;28;20021;-76
2022/07/27 10:25:07;;;;;;;5.95;1.10;;;;;;;-150.27;100.00;61272.81;5238272;28;20029;-76
2022/07/27 10:27:38;;;;;;;4.72;0.95;;;;;;;-150.27;100.00;61272.81;5238037;28;20027;-76
2022/07/27 10:30:10;;;;;;;3.90;1.42;;;;;;;-150.27;100.00;61272.81;5248653;28;20029;-75
2022/07/27 10:32:44;;;;;;;6.15;1.20;;;;;;;-150.27;100.00;61272.81;5249301;28;20032;-77
2022/07/27 10:35:32;;;;;;;6.90;1.40;;;;;;;-150.27;100.00;61272.81;5248955;28;20365;-76
2022/07/27 10:38:17;;;;;;;4.10;1.48;;;;;;;-150.27;100.00;61272.81;5248747;28;20126;-76
2022/07/27 10:41:27;;;;;;;5.72;1.30;;;;;;;-150.27;100.00;61272.81;5218018;28;20037;-76
2022/07/27 10:44:17;;;;;;;5.90;1.10;;;;;;;-150.27;100.00;61272.81;5242577;28;20028;-76
2022/07/27 10:47:02;;;;;;;6.93;1.27;;;;;;;-150.27;100.00;61272.81;5254919;28;20032;-75
2022/07/27 10:49:34;;;;;;;4.88;1.40;;;;;;;-150.27;100.00;61272.81;5246414;28;20070;-77
2022/07/27 10:52:06;;;;;;;4.38;1.48;;;;;;;-150.27;100.00;61272.81;5246582;28;20029;-78
2022/07/27 10:54:38;;;;;;;5.07;1.50;;;;;;;-150.27;100.00;61272.81;5248005;28;20036;-76
2022/07/27 10:57:09;;;;;;;5.25;1.48;;;;;;;-150.27;100.00;61272.81;5251959;28;20017;-78
2022/07/27 10:59:42;;;;;;;4.57;1.30;;;;;;;-150.27;100.00;61272.81;5251127;28;20124;-80
2022/07/27 11:02:18;;;;;;;8.03;1.73;;;;;;;-150.27;100.00;61272.81;5246163;28;20108;-77
2022/07/27 11:04:51;;;;;;;4.15;1.10;;;;;;;-150.27;100.00;61272.81;5246015;28;20074;-80
2022/07/27 11:07:26;;;;;;;5.85;1.25;;;;;;;-150.27;100.00;61272.81;5240629;28;20040;-79
2022/07/27 11:10:00;;;;;;;4.35;1.05;;;;;;;-150.27;100.00;61272.81;5247367;28;20637;-79
2022/07/27 11:12:33;;;;;;;7.43;1.55;;;;;;;-150.27;100.00;61272.81;5248483;28;20074;-80
2022/07/27 11:15:06;;;;;;;3.80;1.50;;;;;;;-150.27;100.00;61272.81;5248182;28;20686;-79
2022/07/27 11:17:47;;;;;;;4.30;1.30;;;;;;;-150.27;100.00;61272.81;5247823;28;20044;-80
2022/07/27 11:20:22;;;;;;;3.75;1.13;;;;;;;-150.27;100.00;61272.81;5247451;28;20106;-79
2022/07/27 11:22:53;;;;;;;4.15;1.23;;;;;;;-150.27;100.00;61272.81;5234736;28;20087;-87
2022/07/27 11:25:25;;;;;;;11.23;1.80;;;;;;;-150.27;100.00;61272.81;5224939;28;20037;-77
2022/07/27 11:27:56;;;;;;;4.82;1.13;;;;;;;-150.27;100.00;61272.81;5232456;28;20455;-79
2022/07/27 11:30:27;;;;;;;4.55;1.33;;;;;;;-150.27;100.00;61272.81;5233814;28;20061;-84
2022/07/27 11:33:03;;;;;;;6.75;1.73;;;;;;;-150.27;100.00;61272.81;5227904;28;20063;-82
2022/07/27 11:35:34;;;;;;;4.50;1.67;;;;;;;-150.27;100.00;61272.81;5232071;28;20061;-82
2022/07/27 11:38:06;;;;;;;10.13;1.73;;;;;;;-150.27;100.00;61272.81;5232196;28;20143;-82